Time;durP1;ratioP1;P1;durP2;ratioP2;P2;SDS_P1;SDS_P2;PMS_P1;PMS_P2;Temp;Humidity;BMP_temperature;BMP_pressure;BME280_temperature;BME280_humidity;BME280_pressure;Samples;Min_cycle;Max_cycle;Signal;HPM_P1;HPM_P2
2022/08/11 00:00:11;;;;;;;5.45;4.85;;;;;;;18.81;86.57;100098.06;1641183;84;22103;-82
2022/08/11 00:02:50;;;;;;;5.47;4.75;;;;;;;18.88;86.83;100087.28;1675477;84;21097;-81
2022/08/11 00:05:18;;;;;;;6.30;5.70;;;;;;;18.93;86.85;100082.91;1663898;84;21106;-79
2022/08/11 00:07:50;;;;;;;5.75;5.25;;;;;;;18.90;87.02;100067.70;1668688;85;21059;-82
2022/08/11 00:10:23;;;;;;;5.28;4.78;;;;;;;18.84;87.14;100061.31;1670937;85;21039;-81
2022/08/11 00:12:58;;;;;;;5.10;4.62;;;;;;;18.84;87.04;100055.93;1689324;83;21073;-79
2022/08/11 00:15:30;;;;;;;5.37;4.87;;;;;;;18.86;86.81;100051.97;1676589;83;21860;-79
2022/08/11 00:17:58;;;;;;;8.08;5.50;;;;;;;18.77;87.17;100044.33;1679207;83;21525;-77
2022/08/11 00:20:31;;;;;;;6.50;4.90;;;;;;;18.70;87.25;100052.45;1687872;83;21037;-79
2022/08/11 00:23:09;;;;;;;6.17;4.87;;;;;;;18.72;87.51;100058.97;1675044;84;21073;-83
2022/08/11 00:25:45;;;;;;;5.53;5.03;;;;;;;18.79;87.49;100061.09;1680320;85;21101;-82
2022/08/11 00:28:33;;;;;;;5.97;4.97;;;;;;;18.77;87.54;100071.25;1683224;84;21826;-79
2022/08/11 00:31:03;;;;;;;4.95;4.45;;;;;;;18.70;87.48;100068.59;1665472;85;21087;-81
2022/08/11 00:33:37;;;;;;;7.45;5.00;;;;;;;18.72;87.53;100071.90;1683017;83;21060;-80
2022/08/11 00:36:04;;;;;;;6.37;5.15;;;;;;;18.76;87.49;100065.58;1684559;84;21112;-81
2022/08/11 00:38:35;;;;;;;5.53;5.03;;;;;;;18.74;87.40;100064.96;1692362;83;21053;-81
2022/08/11 00:41:19;;;;;;;5.00;4.12;;;;;;;18.69;87.45;100067.45;1681702;84;21105;-80
2022/08/11 00:44:15;;;;;;;6.65;4.53;;;;;;;18.73;87.36;100070.02;1602360;88;21049;-80
2022/08/11 00:47:08;;;;;;;7.72;5.22;;;;;;;18.79;86.95;100066.47;1683810;83;21065;-78
2022/08/11 00:49:52;;;;;;;6.17;5.12;;;;;;;18.75;87.06;100067.41;1694522;83;21033;-80
2022/08/11 00:52:45;;;;;;;5.30;4.80;;;;;;;18.70;86.97;100066.40;1677062;84;21033;-80
2022/08/11 00:56:07;;;;;;;7.10;4.62;;;;;;;18.72;87.10;100071.08;1711255;83;21604;-79
2022/08/11 00:58:57;;;;;;;5.80;5.30;;;;;;;18.76;86.92;100069.08;1703312;83;21058;-83
2022/08/11 01:01:50;;;;;;;5.65;4.70;;;;;;;18.67;86.83;100071.17;1675297;84;21157;-81
2022/08/11 01:04:41;;;;;;;5.10;4.50;;;;;;;18.60;87.09;100072.23;1658546;85;21561;-81
2022/08/11 01:07:53;;;;;;;5.70;5.08;;;;;;;18.62;87.12;100075.05;1684209;83;21075;-80
2022/08/11 01:10:45;;;;;;;5.53;4.97;;;;;;;18.69;87.07;100075.53;1730259;82;21030;-81
2022/08/11 01:13:37;;;;;;;7.67;5.62;;;;;;;18.61;87.17;100074.72;1719471;82;21062;-81
2022/08/11 01:16:45;;;;;;;5.58;4.65;;;;;;;18.54;87.30;100065.02;1711634;82;21760;-81
2022/08/11 01:20:05;;;;;;;6.53;5.35;;;;;;;18.58;87.26;100065.75;1722188;82;21030;-82
2022/08/11 01:23:03;;;;;;;6.37;5.03;;;;;;;18.60;87.27;100060.98;1719611;82;21105;-79
2022/08/11 01:26:01;;;;;;;6.78;5.00;;;;;;;18.54;87.50;100058.30;1701929;82;21558;-81
2022/08/11 01:28:55;;;;;;;5.10;4.37;;;;;;;18.47;87.60;100059.15;1716919;82;21066;-78
2022/08/11 01:31:49;;;;;;;5.97;5.45;;;;;;;18.54;87.61;100059.64;1723437;81;21036;-81
2022/08/11 01:34:47;;;;;;;6.03;5.12;;;;;;;18.53;87.60;100060.17;1712832;82;21066;-77
2022/08/11 01:37:56;;;;;;;5.50;5.00;;;;;;;18.48;87.87;100059.97;1701629;82;21049;-81
2022/08/11 01:41:19;;;;;;;5.55;4.95;;;;;;;18.49;88.02;100060.81;1721199;82;21113;-82
2022/08/11 01:47:00;;;;;;;6.58;5.60;;;;;;;18.46;88.18;100055.32;1694818;82;21050;-81
2022/08/11 01:49:44;;;;;;;5.37;4.78;;;;;;;18.42;88.04;100060.30;1687972;83;21310;-83
2022/08/11 01:52:31;;;;;;;6.15;5.10;;;;;;;18.50;87.86;100049.81;1712974;82;21543;-80
2022/08/11 01:55:27;;;;;;;6.20;5.58;;;;;;;18.53;87.76;100050.75;1730416;82;21118;-82
2022/08/11 01:58:11;;;;;;;6.42;4.70;;;;;;;18.46;87.77;100052.63;1711625;82;21060;-78
2022/08/11 02:00:58;;;;;;;5.75;5.25;;;;;;;18.39;88.08;100050.50;1714963;82;21054;-80
2022/08/11 02:03:30;;;;;;;5.55;4.72;;;;;;;18.45;87.97;100046.95;1640969;82;21609;-82
2022/08/11 02:09:18;;;;;;;6.50;5.30;;;;;;;18.38;88.22;100036.20;1719557;82;21113;-82
2022/08/11 02:11:45;;;;;;;5.05;4.60;;;;;;;18.34;88.24;100032.82;1739771;82;21002;-80
2022/08/11 02:14:29;;;;;;;6.12;5.50;;;;;;;18.40;88.07;100031.97;1739038;82;21021;-81
2022/08/11 02:17:52;;;;;;;5.40;4.90;;;;;;;18.40;88.25;100038.69;1724897;82;21031;-81
2022/08/11 02:23:50;;;;;;;7.65;5.47;;;;;;;18.30;88.54;100034.28;1723732;82;21143;-80
2022/08/11 02:26:27;;;;;;;5.83;5.20;;;;;;;18.35;88.41;100035.80;1718636;82;20991;-81
2022/08/11 02:29:14;;;;;;;5.87;4.80;;;;;;;18.31;88.59;100033.23;1722502;82;21045;-81
2022/08/11 02:35:13;;;;;;;5.37;4.90;;;;;;;18.25;88.93;100030.37;1747396;82;20979;-82
2022/08/11 02:37:54;;;;;;;5.58;4.92;;;;;;;18.30;88.87;100032.94;1685572;82;21122;-80
2022/08/11 02:40:50;;;;;;;5.55;5.05;;;;;;;18.25;88.82;100037.09;1729439;82;21046;-81
2022/08/11 02:43:28;;;;;;;5.00;4.60;;;;;;;18.18;89.09;100031.42;1626279;87;21047;-81
2022/08/11 02:46:21;;;;;;;5.10;4.53;;;;;;;18.22;88.99;100037.50;1713130;82;21031;-78
2022/08/11 02:52:11;;;;;;;6.22;4.65;;;;;;;18.18;88.94;100032.24;1720478;82;21231;-81
2022/08/11 02:54:44;;;;;;;7.25;4.78;;;;;;;18.09;89.14;100032.16;1712985;82;21459;-79
2022/08/11 02:57:14;;;;;;;;;;;;;;;18.17;89.10;100032.45;1726106;82;21073;-79
2022/08/11 02:59:52;;;;;;;5.55;5.00;;;;;;;18.16;89.11;100036.19;1729301;82;20169;-80
2022/08/11 03:02:41;;;;;;;5.40;4.90;;;;;;;18.05;89.45;100031.74;1740412;82;21010;-81
2022/08/11 03:05:16;;;;;;;7.08;4.62;;;;;;;18.01;89.60;100026.48;1745006;82;21097;-81
2022/08/11 03:07:57;;;;;;;6.65;5.03;;;;;;;18.07;89.63;100023.48;1734773;81;21505;-81
2022/08/11 03:17:17;;;;;;;6.42;5.83;;;;;;;18.06;90.07;100029.38;1716952;82;21105;-81
2022/08/11 03:20:34;;;;;;;6.55;5.95;;;;;;;18.11;90.17;100021.20;1727991;82;21177;-82
2022/08/11 03:23:26;;;;;;;5.60;4.92;;;;;;;18.07;90.30;100030.20;1722585;82;21609;-80
2022/08/11 03:26:32;;;;;;;6.47;5.87;;;;;;;18.11;90.26;100034.11;1722502;82;21490;-80
2022/08/11 03:29:41;;;;;;;6.65;6.00;;;;;;;18.16;90.12;100031.62;1724747;82;21011;-79
2022/08/11 03:32:28;;;;;;;5.87;4.92;;;;;;;18.13;90.24;100028.00;1687872;84;21080;-78
2022/08/11 03:34:56;;;;;;;5.87;5.33;;;;;;;18.15;90.04;100027.27;1649609;86;21190;-82
2022/08/11 03:37:49;;;;;;;5.25;4.75;;;;;;;18.18;90.00;100030.90;1706865;82;21123;-81
2022/08/11 03:43:29;;;;;;;6.45;4.90;;;;;;;18.11;90.53;100031.42;1720595;82;21034;-81
2022/08/11 03:46:13;;;;;;;6.58;5.25;;;;;;;18.19;90.30;100039.25;1718383;82;21041;-81
2022/08/11 03:49:10;;;;;;;5.87;5.30;;;;;;;18.21;90.19;100045.25;1723031;82;21102;-79
2022/08/11 03:51:57;;;;;;;7.62;5.97;;;;;;;18.18;90.21;100038.14;1723405;82;21071;-78
2022/08/11 03:55:09;;;;;;;5.70;5.20;;;;;;;18.12;90.65;100046.53;1723338;82;21054;-80
2022/08/11 03:57:48;;;;;;;7.87;5.55;;;;;;;18.19;90.30;100038.44;1719648;82;21498;-78
2022/08/11 04:01:06;;;;;;;7.12;5.05;;;;;;;18.20;90.19;100037.41;1725746;82;21135;-80
2022/08/11 04:04:10;;;;;;;6.35;5.75;;;;;;;18.05;90.32;100020.99;1717687;82;21808;-79
2022/08/11 04:07:17;;;;;;;5.65;5.10;;;;;;;18.16;90.08;100033.50;1731398;82;21129;-77
2022/08/11 04:10:24;;;;;;;7.65;5.17;;;;;;;18.25;89.80;100029.52;1726201;82;21101;-78
2022/08/11 04:13:30;;;;;;;5.87;5.00;;;;;;;18.20;89.76;100026.66;1748071;81;21560;-78
2022/08/11 04:16:25;;;;;;;5.53;4.33;;;;;;;18.11;89.93;100028.73;1717578;82;21551;-77
2022/08/11 04:19:23;;;;;;;10.00;5.50;;;;;;;18.20;89.85;100023.45;1724577;82;21610;-78
2022/08/11 04:22:37;;;;;;;6.25;5.30;;;;;;;18.20;90.06;100032.04;1733805;82;21092;-80
2022/08/11 04:25:44;;;;;;;5.67;5.10;;;;;;;18.15;90.21;100023.24;1736723;82;21497;-78
2022/08/11 04:28:25;;;;;;;7.58;5.30;;;;;;;18.19;90.21;100023.65;1743960;82;21544;-79
2022/08/11 04:31:40;;;;;;;6.42;5.15;;;;;;;18.22;90.19;100022.71;1725863;82;21680;-81
2022/08/11 04:34:45;;;;;;;4.85;4.45;;;;;;;18.17;90.01;100016.31;1665737;82;21228;-81
2022/08/11 04:37:56;;;;;;;7.65;5.35;;;;;;;18.18;89.89;100018.80;1723516;82;21054;-82
2022/08/11 04:40:39;;;;;;;6.55;5.92;;;;;;;18.21;89.98;100027.77;1731948;82;21062;-83
2022/08/11 04:43:51;;;;;;;5.97;4.97;;;;;;;18.19;90.11;100011.55;1721965;82;21046;-81
2022/08/11 04:46:29;;;;;;;11.97;6.62;;;;;;;18.22;89.92;100007.92;1663521;86;21129;-81
2022/08/11 05:02:49;;;;;;;8.15;6.30;;;;;;;18.25;89.98;99979.28;1733491;82;21350;-81
2022/08/11 05:05:30;;;;;;;6.25;5.60;;;;;;;18.24;90.38;99978.95;1726230;82;21109;-82
2022/08/11 05:08:34;;;;;;;7.62;5.90;;;;;;;18.37;89.92;99971.86;1734170;82;20983;-80
2022/08/11 05:11:25;;;;;;;6.97;6.10;;;;;;;18.40;89.89;99968.23;1725799;82;20944;-82
2022/08/11 05:37:25;;;;;;;9.25;6.62;;;;;;;18.51;89.75;100033.19;1724057;82;21051;-80
2022/08/11 05:56:57;;;;;;;7.15;6.45;;;;;;;18.62;89.20;100041.41;1721037;82;21065;-81
2022/08/11 05:59:24;;;;;;;7.95;7.00;;;;;;;18.66;88.80;100037.25;1734467;82;21093;-78
2022/08/11 06:01:51;;;;;;;9.28;7.92;;;;;;;18.57;88.86;100030.98;1740421;82;21211;-77
2022/08/11 06:04:22;;;;;;;8.05;6.75;;;;;;;18.48;89.04;100029.03;1730449;82;21014;-79
2022/08/11 06:07:02;;;;;;;11.55;7.30;;;;;;;18.46;89.13;100029.77;1733259;82;21084;-79
2022/08/11 06:09:36;;;;;;;8.28;7.50;;;;;;;18.52;89.30;100036.16;1726396;82;21081;-79
2022/08/11 06:12:09;;;;;;;8.45;7.65;;;;;;;18.52;89.48;100041.54;1730998;82;21523;-82
2022/08/11 06:14:44;;;;;;;8.38;7.10;;;;;;;18.49;89.49;100042.80;1727684;82;21133;-82
2022/08/11 06:20:14;;;;;;;8.38;7.42;;;;;;;18.61;88.93;100041.62;1876104;75;23341;-82
2022/08/11 06:22:44;;;;;;;8.63;7.78;;;;;;;18.53;89.02;100052.62;1849540;77;21012;-81
2022/08/11 06:25:11;;;;;;;7.92;7.12;;;;;;;18.48;89.35;100061.31;1841024;77;22125;-83
2022/08/11 06:27:42;;;;;;;8.30;7.15;;;;;;;18.53;89.55;100062.86;1839135;76;21830;-82
2022/08/11 06:30:12;;;;;;;8.38;7.17;;;;;;;18.67;89.37;100061.75;1803419;77;21473;-83
2022/08/11 06:32:44;;;;;;;8.15;7.40;;;;;;;18.73;89.49;100060.61;1830577;77;21083;-81
2022/08/11 06:35:18;;;;;;;7.70;6.83;;;;;;;18.82;89.43;100043.21;1846128;77;21029;-79
2022/08/11 06:37:56;;;;;;;7.25;6.55;;;;;;;18.97;88.59;100054.52;1829014;77;21124;-79
2022/08/11 06:44:15;;;;;;;8.43;7.60;;;;;;;19.19;87.75;100064.95;1837712;77;21063;-78
2022/08/11 06:46:45;;;;;;;7.67;6.87;;;;;;;19.25;87.19;100062.20;1843046;76;21013;-79
2022/08/11 06:52:08;;;;;;;6.80;6.20;;;;;;;19.56;86.56;100075.89;1820195;76;21056;-79
2022/08/11 06:54:40;;;;;;;8.08;7.25;;;;;;;19.60;86.41;100068.48;1827203;76;20993;-80
2022/08/11 07:03:11;;;;;;;7.47;6.78;;;;;;;19.85;85.77;100089.26;1836891;76;21077;-79
2022/08/11 07:06:02;;;;;;;9.58;6.83;;;;;;;19.86;85.50;100093.62;1838610;76;21353;-81
2022/08/11 07:28:54;;;;;;;8.10;7.35;;;;;;;19.83;84.69;100111.56;1793117;79;21696;-79
2022/08/11 07:31:42;;;;;;;6.65;6.10;;;;;;;19.62;85.26;100090.67;1734002;79;21045;-81
2022/08/11 07:34:22;;;;;;;7.60;6.62;;;;;;;19.59;85.53;100083.02;1769053;79;21954;-81
2022/08/11 07:36:53;;;;;;;6.70;6.15;;;;;;;19.57;85.61;100077.55;1780348;79;20980;-77
2022/08/11 07:39:29;;;;;;;6.62;6.03;;;;;;;19.49;85.88;100081.84;1765675;79;20990;-78
2022/08/11 07:41:57;;;;;;;6.47;5.97;;;;;;;19.40;86.19;100063.25;1763814;79;21552;-79
2022/08/11 07:44:27;;;;;;;7.40;6.62;;;;;;;19.35;86.71;100040.70;1760290;80;21001;-80
2022/08/11 07:52:29;;;;;;;6.00;5.50;;;;;;;19.21;88.55;100070.41;1781055;79;21041;-79
2022/08/11 07:54:58;;;;;;;6.42;5.72;;;;;;;19.25;88.87;100058.69;1776304;79;21060;-82
2022/08/11 08:19:46;;;;;;;7.37;6.50;;;;;;;19.92;88.08;100058.21;1771701;79;21033;-81
2022/08/11 08:22:17;;;;;;;6.50;5.75;;;;;;;19.86;87.95;100056.38;1777203;79;20994;-83
2022/08/11 08:24:44;;;;;;;8.60;5.78;;;;;;;19.84;88.00;100048.00;1779774;79;20934;-80
2022/08/11 08:27:13;;;;;;;7.28;6.20;;;;;;;19.91;88.08;100055.20;1779601;79;21482;-81
2022/08/11 08:32:26;;;;;;;6.92;5.55;;;;;;;19.92;88.62;100069.00;1766259;80;21044;-82
2022/08/11 08:34:58;;;;;;;7.15;5.90;;;;;;;20.00;88.38;100080.31;1771681;79;21056;-80
2022/08/11 08:37:24;;;;;;;6.20;5.60;;;;;;;20.11;88.02;100075.22;1771667;79;21131;-81
2022/08/11 08:39:51;;;;;;;6.00;5.37;;;;;;;20.09;87.68;100067.87;1790027;79;21131;-81
2022/08/11 08:42:25;;;;;;;5.40;4.85;;;;;;;20.04;87.96;100078.81;1789413;79;21100;-80
2022/08/11 08:45:00;;;;;;;5.40;4.87;;;;;;;20.10;87.84;100073.05;1788901;79;21079;-81
2022/08/11 08:47:26;;;;;;;5.42;4.95;;;;;;;20.18;87.44;100070.06;1774492;79;21029;-81
2022/08/11 08:50:01;;;;;;;4.97;4.58;;;;;;;20.19;87.28;100067.68;1754614;79;21060;-78
2022/08/11 08:52:30;;;;;;;4.60;4.20;;;;;;;20.20;86.88;100072.54;1768703;79;21190;-80
2022/08/11 08:54:59;;;;;;;5.50;4.67;;;;;;;20.26;86.71;100067.59;1774881;79;21022;-79
2022/08/11 08:57:27;;;;;;;5.10;4.65;;;;;;;20.32;86.65;100078.02;1773036;79;21120;-81
2022/08/11 08:59:53;;;;;;;4.58;4.17;;;;;;;20.33;86.48;100079.15;1760397;80;21051;-80
2022/08/11 09:02:24;;;;;;;4.20;3.80;;;;;;;20.34;86.13;100065.13;1784725;79;21002;-81
2022/08/11 09:04:50;;;;;;;4.67;4.28;;;;;;;20.43;86.32;100054.34;1766960;79;21212;-79
2022/08/11 09:07:20;;;;;;;4.75;4.35;;;;;;;20.58;85.87;100056.67;1768254;79;21005;-81
2022/08/11 09:09:49;;;;;;;5.78;4.70;;;;;;;20.61;85.85;100055.72;1768835;79;21009;-81
2022/08/11 09:12:18;;;;;;;4.85;4.45;;;;;;;20.62;85.34;100056.55;1770150;79;21609;-82
2022/08/11 09:14:59;;;;;;;5.70;4.55;;;;;;;20.61;84.75;100045.47;1772436;79;21115;-81
2022/08/11 09:17:49;;;;;;;5.10;4.60;;;;;;;20.64;84.42;100057.67;1796876;78;21119;-83
2022/08/11 09:20:23;;;;;;;5.22;4.83;;;;;;;20.57;84.55;100052.30;1792558;78;21480;-82
2022/08/11 09:28:23;;;;;;;5.92;5.33;;;;;;;20.63;84.96;100058.20;1751404;80;21021;-83
2022/08/11 09:30:54;;;;;;;8.78;7.33;;;;;;;20.61;84.70;100058.95;1762966;79;21113;-84
2022/08/11 09:33:22;;;;;;;8.40;7.60;;;;;;;20.58;84.92;100056.67;1786082;80;20930;-84
2022/08/11 09:35:50;;;;;;;12.30;11.10;;;;;;;20.66;84.83;100058.27;1795532;78;21025;-82
2022/08/11 09:41:06;;;;;;;6.60;6.10;;;;;;;20.83;84.89;100061.17;1762530;79;21522;-80
2022/08/11 09:46:23;;;;;;;6.17;5.62;;;;;;;20.92;84.26;100059.28;1764682;79;21521;-79
2022/08/11 09:48:52;;;;;;;8.15;7.42;;;;;;;21.01;83.91;100057.91;1730340;81;21015;-81
2022/08/11 09:51:18;;;;;;;8.75;8.00;;;;;;;21.01;83.98;100064.66;1758666;80;21104;-80
2022/08/11 09:53:46;;;;;;;8.25;7.35;;;;;;;21.03;83.97;100059.55;1761153;80;21100;-80
2022/08/11 09:58:45;;;;;;;6.45;5.85;;;;;;;21.27;83.28;100057.76;1739771;79;21005;-80
2022/08/11 10:01:25;;;;;;;6.17;5.67;;;;;;;21.41;83.08;100047.03;1768783;79;21010;-81
2022/08/11 10:03:40;;;;;;;6.45;5.95;;;;;;;21.60;83.64;100054.02;1792730;78;22234;-80
2022/08/11 10:08:52;;;;;;;6.55;5.30;;;;;;;22.05;82.38;100055.87;1805865;78;21136;-79
2022/08/11 10:11:22;;;;;;;6.53;5.90;;;;;;;22.37;82.09;100060.41;1799800;78;21014;-78
2022/08/11 10:16:35;;;;;;;5.80;5.40;;;;;;;23.06;79.66;100051.48;1781147;79;20958;-79
2022/08/11 10:19:02;;;;;;;6.60;6.00;;;;;;;23.44;78.11;100055.41;1798183;78;21504;-77
2022/08/11 10:21:41;;;;;;;7.03;6.50;;;;;;;23.75;77.03;100052.11;1762843;80;21129;-78
2022/08/11 10:26:54;;;;;;;5.90;5.40;;;;;;;24.20;74.65;100054.95;1747076;81;21076;-79
2022/08/11 10:34:58;;;;;;;6.62;6.12;;;;;;;24.66;72.57;100055.57;1764701;80;21505;-80
2022/08/11 10:37:24;;;;;;;7.90;6.37;;;;;;;24.72;71.20;100053.19;1772439;79;21005;-81
2022/08/11 10:39:52;;;;;;;6.97;6.47;;;;;;;24.63;70.12;100043.87;1780334;78;21041;-81
2022/08/11 10:47:33;;;;;;;6.47;5.97;;;;;;;24.89;71.00;100041.70;1742777;80;21314;-80
2022/08/11 10:47:34;;;;;;;6.97;6.37;;;;;;;25.35;69.33;100039.19;1769074;80;21492;-80
2022/08/11 11:01:07;;;;;;;6.70;6.20;;;;;;;26.62;67.19;100013.87;1777233;79;21149;-82
2022/08/11 11:03:34;;;;;;;6.72;5.70;;;;;;;27.06;65.77;100025.66;1775243;80;21057;-82
2022/08/11 11:06:27;;;;;;;7.80;7.10;;;;;;;27.32;65.36;100023.00;1737191;80;21489;-80
2022/08/11 11:09:10;;;;;;;5.80;5.22;;;;;;;27.64;64.81;100024.89;1767323;80;21080;-81
2022/08/11 11:19:39;;;;;;;5.97;5.58;;;;;;;29.27;59.53;100012.77;1787408;78;21049;-80
2022/08/11 11:25:17;;;;;;;6.03;5.62;;;;;;;29.87;58.13;99995.52;1780605;78;21096;-79
2022/08/11 11:28:03;;;;;;;5.87;5.37;;;;;;;30.37;58.49;99997.41;1795303;78;21603;-80
2022/08/11 11:31:08;;;;;;;5.67;5.28;;;;;;;30.99;57.33;99997.14;1811390;78;21240;-81
2022/08/11 11:34:06;;;;;;;6.12;5.67;;;;;;;31.51;55.40;100006.18;1796141;78;21516;-80
2022/08/11 11:36:50;;;;;;;5.90;5.45;;;;;;;31.90;55.35;99993.35;1776051;79;21072;-79
2022/08/11 11:39:20;;;;;;;6.03;5.53;;;;;;;32.20;53.60;99998.03;1787092;79;21049;-81
2022/08/11 11:41:48;;;;;;;6.67;6.17;;;;;;;32.48;53.54;99995.23;1787753;80;21565;-78
2022/08/11 11:44:15;;;;;;;6.20;5.60;;;;;;;32.78;52.12;99997.89;1818422;78;20919;-79
2022/08/11 11:46:44;;;;;;;6.20;5.72;;;;;;;32.85;52.00;99990.57;1817577;78;21072;-77
2022/08/11 11:49:11;;;;;;;7.53;6.00;;;;;;;33.02;51.22;99989.89;1781418;78;21060;-78
2022/08/11 11:51:38;;;;;;;6.42;5.80;;;;;;;33.13;51.82;99987.72;1801935;78;21005;-79
2022/08/11 11:54:04;;;;;;;6.55;5.65;;;;;;;33.30;50.83;99988.67;1772136;79;21641;-80
2022/08/11 11:56:31;;;;;;;5.97;5.40;;;;;;;33.54;50.38;99988.08;1778643;80;21117;-77
2022/08/11 12:01:43;;;;;;;6.08;5.55;;;;;;;33.68;49.47;99987.43;1782152;79;20998;-79
2022/08/11 12:04:10;;;;;;;5.90;5.47;;;;;;;33.52;49.52;99994.47;1786910;78;21096;-82
2022/08/11 12:06:37;;;;;;;5.90;5.33;;;;;;;33.46;49.95;99997.34;1809184;78;21220;-81
2022/08/11 12:09:04;;;;;;;6.40;5.92;;;;;;;33.36;49.93;100006.41;1816435;78;20995;-79
2022/08/11 12:14:19;;;;;;;7.90;5.65;;;;;;;33.12;49.69;99994.37;1757384;80;21057;-81
2022/08/11 12:16:47;;;;;;;7.03;5.30;;;;;;;32.87;50.28;100000.13;1776413;80;21084;-82
2022/08/11 12:19:20;;;;;;;5.35;4.95;;;;;;;32.79;50.85;100002.25;1793398;78;21673;-82
2022/08/11 12:27:20;;;;;;;7.28;6.00;;;;;;;33.12;50.71;99989.67;1787163;78;21077;-79
2022/08/11 12:29:55;;;;;;;8.18;5.95;;;;;;;33.20;51.01;99991.66;1825047;78;21529;-80
2022/08/11 12:32:25;;;;;;;6.40;5.80;;;;;;;33.43;51.05;99992.45;1820548;78;21119;-80
2022/08/11 12:34:52;;;;;;;5.70;5.17;;;;;;;33.68;50.51;99999.83;1786336;79;21589;-79
2022/08/11 12:37:22;;;;;;;6.78;6.17;;;;;;;33.89;49.78;100000.08;1796571;78;21484;-79
2022/08/11 12:45:29;;;;;;;6.60;6.10;;;;;;;33.99;48.87;100001.16;1786433;79;21123;-78
2022/08/11 12:53:58;;;;;;;6.15;5.75;;;;;;;33.04;50.68;100013.22;1767424;79;21029;-80
2022/08/11 13:04:52;;;;;;;9.43;8.73;;;;;;;30.42;55.15;100017.64;1786956;79;21033;-80
2022/08/11 13:07:19;;;;;;;7.75;7.08;;;;;;;29.86;56.52;100016.34;1762319;79;21552;-81
2022/08/11 13:09:47;;;;;;;8.53;7.60;;;;;;;29.40;57.56;100021.69;1791975;79;21092;-80
2022/08/11 13:14:58;;;;;;;8.18;7.58;;;;;;;28.79;59.25;100015.52;1770301;80;21608;-82
2022/08/11 13:17:28;;;;;;;9.83;8.03;;;;;;;28.51;59.95;100018.91;1765764;79;21040;-81
2022/08/11 13:19:57;;;;;;;8.45;7.80;;;;;;;28.22;60.88;100012.75;1767655;80;21063;-79
2022/08/11 13:22:24;;;;;;;7.65;7.05;;;;;;;27.95;61.65;100004.92;1779656;79;21291;-80
2022/08/11 13:24:54;;;;;;;8.63;7.92;;;;;;;27.68;62.62;100002.50;1785377;78;21840;-81
2022/08/11 13:27:20;;;;;;;8.18;7.47;;;;;;;27.40;63.10;99989.16;1763459;80;21022;-81
2022/08/11 13:29:48;;;;;;;8.40;7.70;;;;;;;27.19;63.91;99987.50;1781157;80;21017;-82
2022/08/11 13:32:15;;;;;;;9.00;8.25;;;;;;;27.00;64.55;99995.39;1797983;78;21104;-83
2022/08/11 13:34:42;;;;;;;8.25;7.60;;;;;;;26.88;64.83;99999.19;1781694;79;21061;-81
2022/08/11 13:37:11;;;;;;;8.60;7.92;;;;;;;26.76;65.42;100000.55;1797769;78;21121;-81
2022/08/11 13:39:38;;;;;;;9.73;8.20;;;;;;;26.66;66.02;99993.16;1765628;79;21049;-80
2022/08/11 13:42:05;;;;;;;9.25;8.55;;;;;;;26.57;66.53;99992.83;1703098;80;21029;-80
2022/08/11 13:44:35;;;;;;;8.58;7.97;;;;;;;26.50;66.37;99994.97;1816741;78;21025;-81
2022/08/11 13:47:04;;;;;;;9.58;8.53;;;;;;;26.48;66.38;99995.27;1801011;78;21064;-81
2022/08/11 13:49:32;;;;;;;9.95;9.05;;;;;;;26.52;66.29;99998.28;1764999;80;21482;-80
2022/08/11 13:51:59;;;;;;;12.37;9.35;;;;;;;26.52;66.32;99997.44;1763287;79;21004;-83
2022/08/11 13:54:29;;;;;;;9.30;8.50;;;;;;;26.52;66.09;100004.25;1799213;78;21549;-79
2022/08/11 13:57:00;;;;;;;10.40;9.60;;;;;;;26.46;66.13;99998.80;1788709;79;21052;-78
2022/08/11 13:59:26;;;;;;;9.48;8.78;;;;;;;26.40;66.21;100003.13;1791339;79;21192;-80
2022/08/11 14:01:59;;;;;;;9.88;9.18;;;;;;;26.37;66.52;100004.48;1783483;79;21469;-80
2022/08/11 14:04:51;;;;;;;10.65;9.75;;;;;;;26.33;66.63;100008.83;1784013;79;21018;-76
2022/08/11 14:07:21;;;;;;;10.35;9.48;;;;;;;26.24;66.83;100015.86;1774147;79;21044;-80
2022/08/11 14:10:16;;;;;;;9.90;9.00;;;;;;;26.11;67.16;100013.61;1785750;79;21040;-79
2022/08/11 14:15:32;;;;;;;10.60;9.70;;;;;;;25.93;68.12;100014.89;1773085;79;21132;-79
2022/08/11 14:18:08;;;;;;;11.48;10.48;;;;;;;25.83;68.55;100015.06;1770583;79;21048;-78
2022/08/11 14:23:33;;;;;;;9.85;8.95;;;;;;;25.72;69.47;100015.27;1778497;79;21116;-78
2022/08/11 14:28:44;;;;;;;10.05;9.08;;;;;;;25.60;69.44;100014.09;1763997;79;21223;-81
2022/08/11 14:31:12;;;;;;;11.90;10.72;;;;;;;25.51;69.43;100013.75;1774111;79;21061;-79
2022/08/11 14:33:38;;;;;;;10.58;9.63;;;;;;;25.45;69.53;100010.71;1772777;80;21701;-79
2022/08/11 14:36:05;;;;;;;11.40;10.13;;;;;;;25.45;69.38;100011.52;1794514;78;21512;-80
2022/08/11 14:38:33;;;;;;;11.55;10.43;;;;;;;25.44;69.53;100007.19;1733167;80;21065;-79
2022/08/11 14:49:18;;;;;;;10.88;9.98;;;;;;;25.54;69.63;99992.03;1779380;79;21048;-80
2022/08/11 14:51:46;;;;;;;10.45;9.50;;;;;;;25.57;69.71;99992.84;1770525;79;21557;-82
2022/08/11 14:56:59;;;;;;;11.15;9.23;;;;;;;25.84;69.59;99985.94;1765838;79;21084;-81
2022/08/11 14:59:26;;;;;;;9.63;8.73;;;;;;;25.98;69.42;99988.52;1784912;79;21135;-81
2022/08/11 15:04:39;;;;;;;10.43;9.48;;;;;;;26.07;69.03;99987.45;1759629;80;21078;-82
2022/08/11 15:07:06;;;;;;;11.10;9.18;;;;;;;25.99;68.82;99986.06;1761714;79;21122;-81
2022/08/11 15:09:33;;;;;;;10.63;9.73;;;;;;;25.93;69.06;99991.20;1771322;79;21021;-80
2022/08/11 15:12:08;;;;;;;11.30;10.38;;;;;;;25.79;68.99;99990.02;1770374;78;21023;-81
2022/08/11 15:17:20;;;;;;;11.08;10.13;;;;;;;25.51;69.80;99994.70;1784019;79;20935;-82
2022/08/11 15:25:18;;;;;;;10.68;9.63;;;;;;;25.13;71.05;100000.64;1778387;79;21032;-81
2022/08/11 15:39:01;;;;;;;9.48;8.78;;;;;;;24.57;72.96;100003.61;1786593;79;21092;-79
2022/08/11 15:47:17;;;;;;;10.85;9.88;;;;;;;24.46;74.28;99999.10;1766458;79;21206;-79
2022/08/11 15:49:44;;;;;;;11.75;10.75;;;;;;;24.38;74.71;99999.01;1781191;79;21038;-81
2022/08/11 15:52:14;;;;;;;9.75;8.75;;;;;;;24.30;74.81;100006.25;1772961;79;21044;-78
2022/08/11 15:54:42;;;;;;;10.10;9.15;;;;;;;24.30;75.05;100004.34;1772047;79;22247;-78
2022/08/11 16:04:09;;;;;;;10.23;9.18;;;;;;;24.38;75.12;99995.45;1776635;79;21048;-78
2022/08/11 16:05:12;;;;;;;11.60;10.50;;;;;;;24.29;75.69;99989.11;1782289;79;21552;-80
2022/08/11 16:07:42;;;;;;;10.25;9.35;;;;;;;24.24;75.86;99989.07;1775613;79;21017;-80
2022/08/11 16:10:11;;;;;;;9.88;9.10;;;;;;;24.26;76.12;99984.72;1786002;79;21075;-80
2022/08/11 16:16:13;;;;;;;10.25;9.25;;;;;;;24.34;76.19;99981.05;1777083;79;21105;-76
2022/08/11 16:18:19;;;;;;;10.88;9.98;;;;;;;24.28;76.41;99984.78;1769826;80;21056;-78
2022/08/11 16:20:46;;;;;;;10.32;9.33;;;;;;;24.26;76.81;99985.56;1782663;79;21109;-81
2022/08/11 16:23:14;;;;;;;9.35;8.35;;;;;;;24.27;77.06;99980.95;1751841;80;21052;-79
2022/08/11 16:25:40;;;;;;;9.80;9.00;;;;;;;24.34;76.95;99980.23;1778494;79;21593;-80
2022/08/11 16:28:07;;;;;;;10.30;9.50;;;;;;;24.32;77.19;99980.48;1773316;79;21048;-81
2022/08/11 16:30:35;;;;;;;10.38;9.43;;;;;;;24.29;77.35;99980.97;1771953;79;21025;-79
2022/08/11 16:33:03;;;;;;;11.35;10.35;;;;;;;24.25;77.49;99989.34;1765488;79;20998;-80
2022/08/11 16:38:34;;;;;;;11.03;10.13;;;;;;;24.21;77.62;99987.39;1766824;79;21267;-78
2022/08/11 16:46:57;;;;;;;10.78;9.78;;;;;;;24.24;77.52;99985.00;1759554;80;21088;-78
2022/08/11 16:49:35;;;;;;;9.98;8.98;;;;;;;23.99;78.31;99989.56;1753927;79;21139;-79
2022/08/11 16:52:04;;;;;;;10.03;9.10;;;;;;;23.98;78.60;99990.62;1760417;80;21098;-79
2022/08/11 16:54:34;;;;;;;10.90;9.73;;;;;;;24.00;78.52;99992.55;1783676;79;21041;-78
2022/08/11 16:59:51;;;;;;;11.05;10.05;;;;;;;23.87;79.13;99999.69;1791251;78;21089;-77
2022/08/11 17:13:07;;;;;;;10.30;9.08;;;;;;;23.77;79.42;99996.80;1815301;78;21077;-79
2022/08/11 17:13:16;;;;;;;10.43;9.38;;;;;;;23.63;80.05;100003.92;1781334;80;21033;-79
2022/08/11 17:16:06;;;;;;;9.83;8.93;;;;;;;23.54;80.39;100004.05;1767928;79;21032;-79
2022/08/11 17:18:44;;;;;;;8.88;8.05;;;;;;;23.54;80.51;100004.86;1745175;80;21067;-79
2022/08/11 17:21:15;;;;;;;10.08;9.03;;;;;;;23.60;80.59;100003.05;1762334;80;21091;-81